createdAt,value
2023-04-02T00:01:33.057Z,8.57
2023-04-02T00:04:39.311Z,8.53
2023-04-02T00:07:45.337Z,8.43
2023-04-02T00:10:44.626Z,8.36
2023-04-02T00:13:13.195Z,8.36
2023-04-02T00:19:40.742Z,8.49
2023-04-02T00:22:20.783Z,8.37
2023-04-02T00:24:53.482Z,8.44
2023-04-02T00:27:28.484Z,8.43
2023-04-02T00:29:57.424Z,8.42
2023-04-02T00:32:40.856Z,8.47
2023-04-02T00:35:49.442Z,8.51
2023-04-02T00:38:32.846Z,8.44
2023-04-02T00:41:04.614Z,8.41
2023-04-02T00:43:36.478Z,8.39
2023-04-02T00:46:16.344Z,8.45
2023-04-02T00:48:49.922Z,8.40
2023-04-02T00:51:30.945Z,8.37
2023-04-02T00:54:36.055Z,8.31
2023-04-02T00:57:32.382Z,8.37
2023-04-02T01:00:22.638Z,8.39
2023-04-02T01:03:37.786Z,8.41
2023-04-02T01:06:14.920Z,8.39
2023-04-02T01:09:19.054Z,8.48
2023-04-02T01:12:18.374Z,8.57
2023-04-02T01:15:21.221Z,8.55
2023-04-02T01:18:11.932Z,8.50
2023-04-02T01:21:04.667Z,8.51
2023-04-02T01:24:01.676Z,8.47
2023-04-02T01:30:21.968Z,8.52
2023-04-02T01:33:01.932Z,8.42
2023-04-02T01:35:37.574Z,8.34
2023-04-02T01:41:54.903Z,8.31
2023-04-02T01:44:54.508Z,8.29
2023-04-02T01:47:36.848Z,8.21
2023-04-02T01:50:39.525Z,8.21
2023-04-02T01:53:14.470Z,8.18
2023-04-02T01:56:11.307Z,8.28
2023-04-02T01:58:44.864Z,8.29
2023-04-02T02:01:28.632Z,8.28
2023-04-02T02:10:02.708Z,8.29
2023-04-02T02:12:38.016Z,8.28
2023-04-02T02:15:29.642Z,8.32
2023-04-02T02:24:53.239Z,8.42
2023-04-02T02:27:38.197Z,8.42
2023-04-02T02:30:11.961Z,8.34
2023-04-02T02:33:17.358Z,8.38
2023-04-02T02:39:08.706Z,8.35
2023-04-02T02:42:02.318Z,8.39
2023-04-02T02:44:37.495Z,8.33
2023-04-02T02:47:21.175Z,8.34
2023-04-02T02:52:59.835Z,8.33
2023-04-02T02:53:14.694Z,8.29
2023-04-02T02:55:46.336Z,8.29
2023-04-02T02:58:26.657Z,8.27
2023-04-02T03:03:43.531Z,8.30
2023-04-02T03:06:21.720Z,8.31
2023-04-02T03:09:17.846Z,8.31
2023-04-02T03:12:11.540Z,8.33
2023-04-02T03:15:18.156Z,8.37
2023-04-02T03:17:53.731Z,8.39
2023-04-02T03:24:42.117Z,8.37
2023-04-02T03:27:31.530Z,8.41
2023-04-02T03:30:39.270Z,8.38
2023-04-02T03:33:50.341Z,8.34
2023-04-02T03:36:21.814Z,8.34
2023-04-02T03:39:04.215Z,8.30
2023-04-02T03:42:02.825Z,8.30
2023-04-02T03:44:49.556Z,8.29
2023-04-02T03:47:25.212Z,8.31
2023-04-02T03:50:04.709Z,8.37
2023-04-02T03:52:34.452Z,8.38
2023-04-02T03:55:10.286Z,8.43
2023-04-02T03:57:47.050Z,8.48
2023-04-02T04:00:37.782Z,8.52
2023-04-02T04:03:31.947Z,8.56
2023-04-02T04:06:21.491Z,8.53
2023-04-02T04:09:11.948Z,8.54
2023-04-02T04:11:55.156Z,8.56
2023-04-02T04:14:31.559Z,8.55
2023-04-02T04:17:04.536Z,8.53
2023-04-02T04:19:42.121Z,8.54
2023-04-02T04:22:30.638Z,8.49
2023-04-02T04:25:09.736Z,8.50
2023-04-02T04:27:54.019Z,8.51
2023-04-02T04:30:29.074Z,8.56
2023-04-02T04:33:11.049Z,8.58
2023-04-02T04:35:40.420Z,8.60
2023-04-02T04:38:10.310Z,8.59
2023-04-02T04:40:45.361Z,8.63
2023-04-02T04:43:19.400Z,8.65
2023-04-02T04:45:53.118Z,8.67
2023-04-02T04:48:27.553Z,8.74
2023-04-02T04:50:59.687Z,8.77
2023-04-02T04:53:28.892Z,8.84
2023-04-02T04:56:16.096Z,8.81
2023-04-02T04:59:02.428Z,8.89
2023-04-02T05:01:41.333Z,8.94
2023-04-02T05:04:37.074Z,9.09
2023-04-02T05:07:21.884Z,9.16
2023-04-02T05:10:08.645Z,9.27
2023-04-02T05:12:51.997Z,9.35
2023-04-02T05:15:39.734Z,9.45
2023-04-02T05:18:39.600Z,9.55
2023-04-02T05:21:16.832Z,9.65
2023-04-02T05:23:55.669Z,9.74
2023-04-02T05:26:29.747Z,9.81
2023-04-02T05:29:14.427Z,9.89
2023-04-02T05:31:55.726Z,9.93
2023-04-02T05:34:29.635Z,9.97
2023-04-02T05:36:56.452Z,10.03
2023-04-02T05:39:25.534Z,10.10
2023-04-02T05:42:03.826Z,10.18
2023-04-02T05:44:43.331Z,10.36
2023-04-02T05:47:21.304Z,10.46
2023-04-02T05:50:12.097Z,10.49
2023-04-02T05:53:22.427Z,10.54
2023-04-02T05:55:58.353Z,10.45
2023-04-02T05:58:36.394Z,10.43
2023-04-02T06:01:22.316Z,10.45
2023-04-02T06:03:54.904Z,10.50
2023-04-02T06:06:46.416Z,10.58
2023-04-02T06:09:25.397Z,10.66
2023-04-02T06:12:10.563Z,10.70
2023-04-02T06:14:37.725Z,10.77
2023-04-02T06:17:06.757Z,10.84
2023-04-02T06:19:37.606Z,10.89
2023-04-02T06:22:25.514Z,10.98
2023-04-02T06:25:18.366Z,11.10
2023-04-02T06:27:47.215Z,11.22
2023-04-02T06:30:19.790Z,11.47
2023-04-02T06:32:46.988Z,11.72
2023-04-02T06:35:14.970Z,11.96
2023-04-02T06:37:48.915Z,12.24
2023-04-02T06:40:53.398Z,12.44
2023-04-02T06:43:44.947Z,12.74
2023-04-02T06:46:53.558Z,13.09
2023-04-02T06:49:37.007Z,13.20
2023-04-02T06:52:11.512Z,13.24
2023-04-02T06:54:38.303Z,13.29
2023-04-02T06:57:07.198Z,13.18
2023-04-02T06:59:40.486Z,13.32
2023-04-02T07:02:25.512Z,13.46
2023-04-02T07:04:52.847Z,13.61
2023-04-02T07:07:20.042Z,13.51
2023-04-02T07:09:47.079Z,13.56
2023-04-02T07:12:14.879Z,13.58
2023-04-02T07:14:41.547Z,13.83
2023-04-02T07:17:18.829Z,13.95
2023-04-02T07:19:49.954Z,14.00
2023-04-02T07:22:26.216Z,13.96
2023-04-02T07:24:53.875Z,14.09
2023-04-02T07:27:21.233Z,14.33
2023-04-02T07:29:51.151Z,14.51
2023-04-02T07:32:20.185Z,14.71
2023-04-02T07:34:47.668Z,14.79
2023-04-02T07:37:17.919Z,15.01
2023-04-02T07:39:49.663Z,14.97
2023-04-02T07:42:23.268Z,14.98
2023-04-02T07:44:51.411Z,15.33
2023-04-02T07:47:42.264Z,15.62
2023-04-02T07:50:11.179Z,15.44
2023-04-02T07:52:45.811Z,15.01
2023-04-02T07:55:50.004Z,14.77
2023-04-02T07:58:19.915Z,14.33
2023-04-02T08:00:51.580Z,14.36
2023-04-02T08:03:25.303Z,14.75
2023-04-02T08:05:58.701Z,14.91
2023-04-02T08:08:26.459Z,15.03
2023-04-02T08:11:03.338Z,14.99
2023-04-02T08:13:34.196Z,15.01
2023-04-02T08:16:31.664Z,15.21
2023-04-02T08:19:11.658Z,15.47
2023-04-02T08:24:35.064Z,15.35
2023-04-02T08:27:02.358Z,15.57
2023-04-02T08:29:32.754Z,15.29
2023-04-02T08:32:01.024Z,14.98
2023-04-02T08:34:28.857Z,14.80
2023-04-02T08:36:57.011Z,14.56
2023-04-02T08:39:26.276Z,14.30
2023-04-02T08:42:25.840Z,14.06
2023-04-02T08:45:24.254Z,13.90
2023-04-02T08:47:56.313Z,13.89
2023-04-02T08:50:42.976Z,14.07
2023-04-02T08:53:42.321Z,14.38
2023-04-02T08:56:45.268Z,14.60
2023-04-02T08:59:32.924Z,14.76
2023-04-02T09:02:21.857Z,14.98
2023-04-02T09:04:49.123Z,15.37
2023-04-02T09:07:42.968Z,15.54
2023-04-02T09:10:23.875Z,15.73
2023-04-02T09:13:17.356Z,16.13
2023-04-02T09:15:45.174Z,16.29
2023-04-02T09:18:22.986Z,16.69
2023-04-02T09:20:50.309Z,16.99
2023-04-02T09:23:26.166Z,17.07
2023-04-02T09:26:04.292Z,17.21
2023-04-02T09:28:32.767Z,17.32
2023-04-02T09:31:21.937Z,17.60
2023-04-02T09:33:51.804Z,17.62
2023-04-02T09:36:38.898Z,17.47
2023-04-02T09:39:17.897Z,17.25
2023-04-02T09:41:50.296Z,17.42
2023-04-02T09:44:31.002Z,17.76
2023-04-02T09:47:05.130Z,17.84
2023-04-02T09:49:37.457Z,17.99
2023-04-02T09:52:36.065Z,18.21
2023-04-02T09:55:15.651Z,18.27
2023-04-02T09:57:43.915Z,17.87
2023-04-02T10:03:23.652Z,17.59
2023-04-02T10:06:15.891Z,18.07
2023-04-02T10:08:47.980Z,18.19
2023-04-02T10:11:20.224Z,18.28
2023-04-02T10:14:00.793Z,18.42
2023-04-02T10:16:39.783Z,18.78
2023-04-02T10:19:15.281Z,19.24
2023-04-02T10:21:49.238Z,19.06
2023-04-02T10:24:18.735Z,18.68
2023-04-02T10:27:26.297Z,18.74
2023-04-02T10:30:02.785Z,18.64
2023-04-02T10:32:41.762Z,18.62
2023-04-02T10:35:09.071Z,18.53
2023-04-02T10:37:51.308Z,18.39
2023-04-02T10:40:21.115Z,18.33
2023-04-02T10:43:00.179Z,18.27
2023-04-02T10:46:00.791Z,18.38
2023-04-02T10:49:26.504Z,18.37
2023-04-02T10:52:33.544Z,18.59
2023-04-02T10:55:03.718Z,18.41
2023-04-02T10:57:36.961Z,18.44
2023-04-02T11:00:31.726Z,18.73
2023-04-02T11:03:20.613Z,18.79
2023-04-02T11:05:57.124Z,18.92
2023-04-02T11:08:45.794Z,18.79
2023-04-02T11:11:29.092Z,18.81
2023-04-02T11:14:04.334Z,18.74
2023-04-02T11:16:45.007Z,18.91
2023-04-02T11:19:37.245Z,19.01
2023-04-02T11:22:20.678Z,18.72
2023-04-02T11:24:54.872Z,18.67
2023-04-02T11:27:36.426Z,18.79
2023-04-02T11:30:07.064Z,18.98
2023-04-02T11:32:52.777Z,18.96
2023-04-02T11:35:36.314Z,19.07
2023-04-02T11:38:27.414Z,19.35
2023-04-02T11:40:58.729Z,19.37
2023-04-02T11:43:35.668Z,19.50
2023-04-02T11:46:30.772Z,19.62
2023-04-02T11:49:36.147Z,19.72
2023-04-02T11:52:12.077Z,19.67
2023-04-02T11:54:41.288Z,19.49
2023-04-02T11:57:24.946Z,19.57
2023-04-02T12:00:45.456Z,19.13
2023-04-02T12:03:45.688Z,18.89
2023-04-02T12:06:13.529Z,18.59
2023-04-02T12:09:08.437Z,18.72
2023-04-02T12:11:38.291Z,18.88
2023-04-02T12:14:42.970Z,19.13
2023-04-02T12:17:34.338Z,19.32
2023-04-02T12:20:05.741Z,19.25
2023-04-02T12:22:34.056Z,19.30
2023-04-02T12:25:19.193Z,19.37
2023-04-02T12:27:49.292Z,19.53
2023-04-02T12:30:23.265Z,19.40
2023-04-02T12:32:52.256Z,19.45
2023-04-02T12:35:40.268Z,19.42
2023-04-02T12:38:19.815Z,19.57
2023-04-02T12:41:01.573Z,19.79
2023-04-02T12:43:33.544Z,20.03
2023-04-02T12:46:04.590Z,20.32
2023-04-02T12:48:36.518Z,20.59
2023-04-02T12:51:07.595Z,20.68
2023-04-02T12:53:44.148Z,20.36
2023-04-02T12:56:21.730Z,20.05
2023-04-02T12:58:59.400Z,19.80
2023-04-02T13:01:35.278Z,19.72
2023-04-02T13:04:13.062Z,19.45
2023-04-02T13:06:47.661Z,19.40
2023-04-02T13:09:40.174Z,19.49
2023-04-02T13:12:07.606Z,19.61
2023-04-02T13:14:34.583Z,19.57
2023-04-02T13:17:01.617Z,19.69
2023-04-02T13:19:33.503Z,19.75
2023-04-02T13:22:03.104Z,19.71
2023-04-02T13:24:32.868Z,19.34
2023-04-02T13:27:02.273Z,19.10
2023-04-02T13:29:36.920Z,18.96
2023-04-02T13:32:12.595Z,18.76
2023-04-02T13:34:39.598Z,18.87
2023-04-02T13:37:06.568Z,18.98
2023-04-02T13:39:33.546Z,19.14
2023-04-02T13:42:03.122Z,19.13
2023-04-02T13:44:32.792Z,19.06
2023-04-02T13:47:01.047Z,19.00
2023-04-02T13:49:29.097Z,19.00
2023-04-02T13:52:08.159Z,18.97
2023-04-02T13:54:54.508Z,18.90
2023-04-02T13:57:21.805Z,18.88
2023-04-02T13:59:48.583Z,19.07
2023-04-02T14:02:22.387Z,19.27
2023-04-02T14:04:53.537Z,19.45
2023-04-02T14:07:45.202Z,19.60
2023-04-02T14:10:36.895Z,19.61
2023-04-02T14:13:06.466Z,19.89
2023-04-02T14:16:07.454Z,19.91
2023-04-02T14:18:39.650Z,19.90
2023-04-02T14:21:29.824Z,19.89
2023-04-02T14:24:35.994Z,19.92
2023-04-02T14:27:08.861Z,20.02
2023-04-02T14:29:48.065Z,20.03
2023-04-02T14:32:31.885Z,19.91
2023-04-02T14:35:24.393Z,19.78
2023-04-02T14:38:12.076Z,19.75
2023-04-02T14:41:04.158Z,19.82
2023-04-02T14:44:05.367Z,19.94
2023-04-02T14:46:36.200Z,19.97
2023-04-02T14:49:39.732Z,20.05
2023-04-02T14:55:06.402Z,19.57
2023-04-02T14:57:45.455Z,19.55
2023-04-02T15:00:34.403Z,19.03
2023-04-02T15:03:47.316Z,18.65
2023-04-02T15:06:40.611Z,18.38
2023-04-02T15:09:27.547Z,18.24
2023-04-02T15:12:00.187Z,17.99
2023-04-02T15:14:47.907Z,17.88
2023-04-02T15:17:14.964Z,18.05
2023-04-02T15:19:42.345Z,18.38
2023-04-02T15:22:11.929Z,18.78
2023-04-02T15:25:10.718Z,19.03
2023-04-02T15:27:58.646Z,19.42
2023-04-02T15:30:29.559Z,19.93
2023-04-02T15:33:21.789Z,20.45
2023-04-02T15:35:57.566Z,20.05
2023-04-02T15:38:31.853Z,20.01
2023-04-02T15:41:11.438Z,19.51
2023-04-02T15:44:03.793Z,18.78
2023-04-02T15:47:04.669Z,18.19
2023-04-02T15:50:01.976Z,17.91
2023-04-02T15:52:33.614Z,17.56
2023-04-02T15:55:39.282Z,17.32
2023-04-02T15:58:06.697Z,17.06
2023-04-02T16:00:59.890Z,16.89
2023-04-02T16:04:20.124Z,16.68
2023-04-02T16:07:12.927Z,16.51
2023-04-02T16:10:33.962Z,16.40
2023-04-02T16:13:25.886Z,16.32
2023-04-02T16:16:07.394Z,16.22
2023-04-02T16:18:59.290Z,16.06
2023-04-02T16:21:33.556Z,15.93
2023-04-02T16:24:02.523Z,15.87
2023-04-02T16:26:46.261Z,15.81
2023-04-02T16:29:53.402Z,15.63
2023-04-02T16:32:43.286Z,15.37
2023-04-02T16:38:12.044Z,15.05
2023-04-02T16:41:07.849Z,14.89
2023-04-02T16:43:55.476Z,14.74
2023-04-02T16:49:15.354Z,14.43
2023-04-02T16:52:21.160Z,14.32
2023-04-02T16:55:17.134Z,14.10
2023-04-02T16:58:13.293Z,13.89
2023-04-02T17:00:57.722Z,13.69
2023-04-02T17:06:53.778Z,13.29
2023-04-02T17:09:48.526Z,13.08
2023-04-02T17:12:28.376Z,12.98
2023-04-02T17:15:14.047Z,12.86
2023-04-02T17:17:51.105Z,12.65
2023-04-02T17:20:25.678Z,12.50
2023-04-02T17:23:08.382Z,12.35
2023-04-02T17:26:03.108Z,12.19
2023-04-02T17:28:40.120Z,12.09
2023-04-02T17:31:36.572Z,11.96
2023-04-02T17:34:24.750Z,11.86
2023-04-02T17:37:14.189Z,11.76
2023-04-02T17:40:36.256Z,11.59
2023-04-02T17:43:55.525Z,11.34
2023-04-02T17:46:46.090Z,11.30
2023-04-02T17:52:56.780Z,11.05
2023-04-02T17:55:43.874Z,10.95
2023-04-02T18:06:06.260Z,10.55
2023-04-02T18:08:49.950Z,10.49
2023-04-02T18:11:57.976Z,10.35
2023-04-02T18:15:11.391Z,10.21
2023-04-02T18:18:12.683Z,10.15
2023-04-02T18:21:15.843Z,10.05
2023-04-02T18:24:16.725Z,9.99
2023-04-02T18:27:29.567Z,9.92
2023-04-02T18:30:06.041Z,9.75
2023-04-02T18:36:04.160Z,9.64
2023-04-02T18:38:41.330Z,9.62
2023-04-02T18:41:35.286Z,9.65
2023-04-02T18:44:30.627Z,9.50
2023-04-02T18:50:46.215Z,9.28
2023-04-02T18:53:25.082Z,9.30
2023-04-02T18:56:27.136Z,9.27
2023-04-02T18:59:14.137Z,9.26
2023-04-02T19:01:58.633Z,9.14
2023-04-02T19:04:46.791Z,9.07
2023-04-02T19:07:36.903Z,9.09
2023-04-02T19:10:46.756Z,9.09
2023-04-02T19:13:28.957Z,9.15
2023-04-02T19:16:04.299Z,9.10
2023-04-02T19:19:18.682Z,9.01
2023-04-02T19:21:53.593Z,8.90
2023-04-02T19:27:53.900Z,8.70
2023-04-02T19:30:42.488Z,8.60
2023-04-02T19:33:52.383Z,8.66
2023-04-02T19:36:44.781Z,8.69
2023-04-02T19:39:53.167Z,8.77
2023-04-02T19:46:15.639Z,8.68
2023-04-02T19:49:29.105Z,8.51
2023-04-02T19:52:12.215Z,8.52
2023-04-02T19:55:27.222Z,8.56
2023-04-02T19:58:04.132Z,8.42
2023-04-02T20:01:30.216Z,8.35
2023-04-02T20:07:03.970Z,8.33
2023-04-02T20:16:43.252Z,8.40
2023-04-02T20:19:28.040Z,8.48
2023-04-02T20:22:55.011Z,8.53
2023-04-02T20:26:25.081Z,8.57
2023-04-02T20:29:00.405Z,8.58
2023-04-02T20:32:11.457Z,8.57
2023-04-02T20:38:13.153Z,8.52
2023-04-02T20:40:42.344Z,8.53
2023-04-02T20:46:16.086Z,8.56
2023-04-02T20:48:49.818Z,8.55
2023-04-02T20:51:43.078Z,8.58
2023-04-02T20:54:33.290Z,8.60
2023-04-02T20:57:02.034Z,8.62
2023-04-02T21:00:12.313Z,8.59
2023-04-02T21:03:00.661Z,8.50
2023-04-02T21:06:23.739Z,8.58
2023-04-02T21:08:34.973Z,8.64
2023-04-02T21:19:22.049Z,8.39
2023-04-02T21:21:06.930Z,8.36
2023-04-02T21:24:08.409Z,8.40
2023-04-02T21:29:32.541Z,8.29
2023-04-02T21:33:24.742Z,8.22
2023-04-02T21:42:30.106Z,8.00
2023-04-02T21:45:48.888Z,8.03
2023-04-02T21:51:49.750Z,7.83
2023-04-02T22:01:31.941Z,7.58
2023-04-02T22:04:16.930Z,7.59
2023-04-02T22:06:54.083Z,7.52
2023-04-02T22:09:42.690Z,7.41
2023-04-02T22:12:11.696Z,7.47
2023-04-02T22:14:55.461Z,7.35
2023-04-02T22:19:07.086Z,7.37
2023-04-02T22:20:39.157Z,7.39
2023-04-02T22:26:23.282Z,7.31
2023-04-02T22:29:19.033Z,7.25
2023-04-02T22:31:53.059Z,7.24
2023-04-02T22:34:26.996Z,7.21
2023-04-02T22:40:05.904Z,7.06
2023-04-02T22:42:42.054Z,6.97
2023-04-02T22:48:36.318Z,6.69
2023-04-02T22:51:47.933Z,6.70
2023-04-02T22:54:45.097Z,6.64
2023-04-02T23:00:50.382Z,6.55
2023-04-02T23:03:28.648Z,6.49
2023-04-02T23:06:05.588Z,6.50
2023-04-02T23:08:43.254Z,6.57
2023-04-02T23:11:18.026Z,6.49
2023-04-02T23:13:53.243Z,6.48
2023-04-02T23:16:45.438Z,6.47
2023-04-02T23:19:13.846Z,6.45
2023-04-02T23:21:59.951Z,6.36
2023-04-02T23:24:31.533Z,6.36
2023-04-02T23:26:59.512Z,6.34
2023-04-02T23:29:30.856Z,6.32
2023-04-02T23:31:58.666Z,6.34
2023-04-02T23:34:29.877Z,6.36
2023-04-02T23:37:01.259Z,6.35
2023-04-02T23:39:35.345Z,6.34
2023-04-02T23:42:06.255Z,6.28
2023-04-02T23:44:36.602Z,6.25
2023-04-02T23:47:05.978Z,6.06
2023-04-02T23:49:34.260Z,6.04
2023-04-02T23:52:01.856Z,6.02
2023-04-02T23:54:30.388Z,5.97
2023-04-02T23:57:04.675Z,6.01
2023-04-02T23:59:37.343Z,5.73
